YCNM

Details ICAO YCNM (CNB)
Name Coonamble
Region Australia
Timezone Australia/Sydney (UTC+11.0)
Plans Departing 0
Arriving 0
Stats Elevation 604 ft / 184 m (AMSL)
Location -30.980259° 148.375963°
Runways 2
Magnetic Variation 10.622° E
Sunrise 2017-12-12 18:58:06 UTC / 2017-12-13 05:58:06 Local
Sunset 2017-12-13 09:05:45 UTC / 2017-12-13 20:05:45 Local
Advertisement - Login to hide

Runways

ID Width Length Bearing (true) Bearing (mag) Surface Threshold Offset Overrun Length
05 98 ft / 30 m 5,012 ft / 1,528 m 53.70° 43.08° Asphalt 0 ft / 0 m 0 ft / 0 m
12 164 ft / 50 m 2,183 ft / 665 m 127.40° 116.78° Grass 0 ft / 0 m 0 ft / 0 m
23 98 ft / 30 m 5,012 ft / 1,528 m 233.70° 223.08° Asphalt 0 ft / 0 m 0 ft / 0 m
30 164 ft / 50 m 2,183 ft / 665 m 307.40° 296.78° Grass 0 ft / 0 m 0 ft / 0 m

Map

Weather


0- 5 10 15 20 25 30 35+ Temperature / ° C

Clouds and Precipitation
Forecast for 2017-12-12 18:00 UTC. Updated 32 minutes ago

Ground ~20,000 ft ~40,000 ft Winds

METAR

YCNM 121700Z AUTO 04013KT //// // ////// 25/08 Q1012

TAF

Not found

Frequencies

Unicom 119.60 MHz ACTIVATE LIGHTS ONLY MULT
Tower 127.10 MHz BRISBANE CNTR
Unicom 126.70 MHz COONAMBLE MULT
Warning: Do not use this data for real-world aviation or navigation. No guarantee of current accuracy is given.